Time;durP1;ratioP1;P1;durP2;ratioP2;P2;SDS_P1;SDS_P2;PMS_P1;PMS_P2;Temp;Humidity;BMP_temperature;BMP_pressure;BME280_temperature;BME280_humidity;BME280_pressure;Samples;Min_cycle;Max_cycle;Signal;HPM_P1;HPM_P2
2021/06/15 00:00:50;;;;;;;4.38;3.50;;;;;;;25.20;58.93;99865.91;2059949;28;20171;-42
2021/06/15 00:01:50;;;;;;;4.77;3.30;;;;;;;25.18;59.03;99859.75;2061231;28;20134;-45
2021/06/15 00:02:51;;;;;;;4.33;3.70;;;;;;;25.19;58.82;99861.47;2054015;28;20488;-44
2021/06/15 00:03:52;;;;;;;4.10;3.70;;;;;;;25.19;58.94;99861.47;2058010;28;20755;-43
2021/06/15 00:04:52;;;;;;;4.57;4.03;;;;;;;25.18;58.93;99865.25;2060740;28;20100;-43
2021/06/15 00:05:52;;;;;;;3.93;3.17;;;;;;;25.18;59.08;99859.75;2060573;28;20744;-43
2021/06/15 00:06:53;;;;;;;5.20;3.67;;;;;;;25.18;59.16;99865.25;2060824;28;20037;-42
2021/06/15 00:07:53;;;;;;;5.03;3.20;;;;;;;25.17;59.07;99863.56;2060244;28;20034;-44
2021/06/15 00:08:54;;;;;;;3.70;3.37;;;;;;;25.18;58.83;99856.13;2062470;28;20325;-43
2021/06/15 00:09:54;;;;;;;4.00;3.60;;;;;;;25.18;59.08;99859.75;2056567;28;20284;-43
2021/06/15 00:10:55;;;;;;;6.17;3.60;;;;;;;25.18;58.82;99859.75;2056718;28;20113;-44
2021/06/15 00:11:55;;;;;;;4.40;3.70;;;;;;;25.18;59.11;99859.75;2060146;28;20033;-44
2021/06/15 00:12:56;;;;;;;3.57;3.27;;;;;;;25.18;59.18;99856.97;2057978;28;20026;-43
2021/06/15 00:13:57;;;;;;;3.92;3.53;;;;;;;25.18;59.16;99853.38;2059379;28;20442;-43
2021/06/15 00:14:57;;;;;;;3.80;3.50;;;;;;;25.17;59.03;99858.03;2063038;28;20030;-43
2021/06/15 00:15:58;;;;;;;5.20;3.67;;;;;;;25.19;59.02;99850.44;2061326;28;20025;-43
2021/06/15 00:16:58;;;;;;;5.17;3.43;;;;;;;25.17;59.12;99849.78;2061594;28;20033;-43
2021/06/15 00:17:58;;;;;;;4.13;3.67;;;;;;;25.18;58.94;99856.13;2062147;28;20030;-44
2021/06/15 00:18:59;;;;;;;4.03;3.63;;;;;;;25.17;58.89;99855.28;2053251;28;20034;-43
2021/06/15 00:19:59;;;;;;;3.80;3.37;;;;;;;25.17;59.11;99851.69;2052468;28;20030;-43
2021/06/15 00:21:00;;;;;;;4.10;3.60;;;;;;;25.17;58.98;99852.53;2057490;28;20045;-43
2021/06/15 00:22:00;;;;;;;4.33;3.93;;;;;;;25.17;59.03;99848.91;2061808;28;20037;-41
2021/06/15 00:23:01;;;;;;;3.63;3.10;;;;;;;25.17;59.07;99868.22;2060814;28;20440;-40
2021/06/15 00:24:01;;;;;;;3.90;3.10;;;;;;;25.16;59.04;99856.31;2055343;28;20120;-40
2021/06/15 00:25:03;;;;;;;4.17;3.60;;;;;;;25.17;59.09;99857.19;2063713;28;20866;-40
2021/06/15 00:26:04;;;;;;;4.53;4.07;;;;;;;25.16;59.07;99850.81;2060502;28;20029;-40
2021/06/15 00:27:05;;;;;;;3.67;3.23;;;;;;;25.16;58.95;99861.81;2060852;28;20057;-41
2021/06/15 00:28:05;;;;;;;3.97;3.57;;;;;;;25.18;58.87;99853.38;2061769;28;20332;-42
2021/06/15 00:29:05;;;;;;;3.90;3.50;;;;;;;25.16;59.08;99861.81;2062188;28;20041;-41
2021/06/15 00:30:09;;;;;;;4.00;3.63;;;;;;;25.17;58.96;99858.03;2060322;28;20017;-41
2021/06/15 00:31:10;;;;;;;3.80;3.38;;;;;;;25.15;59.00;99865.63;2061432;28;20038;-41
2021/06/15 00:32:10;;;;;;;3.67;3.37;;;;;;;25.16;58.90;99861.81;2062262;28;20030;-41
2021/06/15 00:33:11;;;;;;;3.70;3.30;;;;;;;25.16;59.06;99861.81;2061567;28;20045;-42
2021/06/15 00:34:11;;;;;;;4.03;3.60;;;;;;;25.16;58.98;99850.81;2060366;28;20389;-43
2021/06/15 00:35:12;;;;;;;5.13;3.97;;;;;;;25.17;58.96;99855.28;2061698;28;20025;-42
2021/06/15 00:36:12;;;;;;;4.43;3.03;;;;;;;25.16;59.04;99855.44;2061010;28;20628;-41
2021/06/15 00:37:12;;;;;;;3.30;3.00;;;;;;;25.16;58.99;99845.28;2062660;28;20033;-42
2021/06/15 00:38:13;;;;;;;3.47;3.07;;;;;;;25.16;58.89;99852.69;2061023;28;20022;-40
2021/06/15 00:39:13;;;;;;;3.83;3.43;;;;;;;25.17;58.95;99848.91;2061171;28;20017;-42
2021/06/15 00:40:14;;;;;;;4.63;3.70;;;;;;;25.15;58.96;99849.06;2062490;28;20017;-40
2021/06/15 00:41:15;;;;;;;3.35;2.72;;;;;;;25.15;58.99;99854.59;2061109;28;20102;-40
2021/06/15 00:42:16;;;;;;;3.47;3.17;;;;;;;25.16;58.96;99860.94;2059070;28;20064;-41
2021/06/15 00:43:16;;;;;;;3.88;3.20;;;;;;;25.16;59.04;99856.31;2061530;28;20030;-41
2021/06/15 00:44:17;;;;;;;4.50;4.10;;;;;;;25.16;58.99;99860.94;2061505;28;20065;-40
2021/06/15 00:45:27;;;;;;;3.60;3.17;;;;;;;25.14;58.79;99858.41;2061422;28;20053;-42
2021/06/15 00:46:28;;;;;;;3.90;3.50;;;;;;;25.16;58.83;99849.91;2058421;28;20025;-42
2021/06/15 00:47:29;;;;;;;5.30;3.27;;;;;;;25.15;59.01;99859.25;2060232;28;20420;-41
2021/06/15 00:48:36;;;;;;;5.30;3.67;;;;;;;25.14;58.82;99852.88;2056512;28;20041;-41
2021/06/15 00:49:38;;;;;;;4.28;3.70;;;;;;;25.14;59.07;99852.88;2051796;28;20468;-42
2021/06/15 00:50:39;;;;;;;4.15;3.75;;;;;;;25.14;58.93;99847.38;2051669;28;20034;-41
2021/06/15 00:51:39;;;;;;;3.97;3.57;;;;;;;25.15;58.91;99859.25;2062347;28;20036;-41
2021/06/15 00:52:41;;;;;;;3.97;3.20;;;;;;;25.15;58.99;99850.97;2056998;28;20019;-41
2021/06/15 00:53:42;;;;;;;4.07;3.67;;;;;;;25.15;58.76;99854.59;2061619;28;20018;-41
2021/06/15 00:54:43;;;;;;;3.50;3.20;;;;;;;25.15;59.14;99854.59;2061174;28;20683;-40
2021/06/15 00:55:45;;;;;;;;;;;;;;;25.10;58.84;99857.09;2062500;28;20029;-41
2021/06/15 00:56:45;;;;;;;4.55;3.53;;;;;;;25.11;58.99;99861.56;2062818;28;20327;-41
2021/06/15 00:57:45;;;;;;;3.77;3.47;;;;;;;25.12;58.98;99860.50;2060408;28;20075;-40
2021/06/15 00:58:47;;;;;;;3.47;3.17;;;;;;;25.13;59.06;99848.41;2059830;28;20084;-41
2021/06/15 00:59:48;;;;;;;4.65;3.70;;;;;;;25.12;59.09;99855.00;2058733;28;20049;-40
2021/06/15 01:00:50;;;;;;;3.50;3.08;;;;;;;25.13;59.14;99856.69;2060263;28;20154;-41
2021/06/15 01:01:50;;;;;;;3.92;3.33;;;;;;;25.12;59.17;99849.47;2059232;28;20073;-41
2021/06/15 01:02:51;;;;;;;3.50;3.17;;;;;;;25.13;59.04;99851.16;2061263;28;20388;-42
2021/06/15 01:03:52;;;;;;;3.20;2.90;;;;;;;25.13;59.10;99856.69;2059095;28;20029;-41
2021/06/15 01:04:53;;;;;;;3.70;3.08;;;;;;;25.13;59.00;99851.16;2060962;28;20077;-43
2021/06/15 01:05:54;;;;;;;4.03;3.63;;;;;;;25.13;58.91;99851.16;2059996;28;20033;-42
2021/06/15 01:06:54;;;;;;;4.80;3.33;;;;;;;25.13;59.14;99851.16;2052427;28;20030;-41
2021/06/15 01:08:23;;;;;;;4.03;3.33;;;;;;;25.13;58.97;99851.16;2051540;28;20030;-41
2021/06/15 01:09:36;;;;;;;4.22;3.45;;;;;;;25.12;58.99;99848.63;2062301;28;20021;-41
2021/06/15 01:10:51;;;;;;;4.25;3.10;;;;;;;25.11;58.96;99847.78;2060857;28;20140;-41
2021/06/15 01:12:08;;;;;;;3.58;3.28;;;;;;;25.11;59.04;99858.81;2058773;28;20108;-41
2021/06/15 01:13:40;;;;;;;3.88;3.50;;;;;;;25.10;59.15;99862.59;2058003;28;20045;-40
2021/06/15 01:15:00;;;;;;;3.92;3.13;;;;;;;25.10;59.08;99857.09;2061188;28;20014;-41
2021/06/15 01:16:15;;;;;;;3.80;3.40;;;;;;;25.10;59.01;99857.09;2059682;28;20118;-48
2021/06/15 01:17:20;;;;;;;4.75;3.65;;;;;;;25.10;59.18;99856.22;2061785;28;20348;-40
2021/06/15 01:18:24;;;;;;;3.75;3.35;;;;;;;25.11;59.11;99861.56;2061403;28;20425;-40
2021/06/15 01:19:36;;;;;;;4.03;3.63;;;;;;;25.10;59.07;99857.09;2061694;28;20033;-41
2021/06/15 01:20:44;;;;;;;3.75;3.20;;;;;;;25.11;58.89;99857.94;2062839;28;20079;-41
2021/06/15 01:22:07;;;;;;;3.60;3.30;;;;;;;25.09;59.12;99855.38;2059793;28;20017;-41
2021/06/15 01:23:22;;;;;;;3.67;3.28;;;;;;;25.09;58.74;99855.38;2061365;28;20817;-41
2021/06/15 01:24:34;;;;;;;3.65;3.28;;;;;;;25.10;59.02;99857.09;2060498;28;20125;-41
2021/06/15 01:25:53;;;;;;;4.65;3.75;;;;;;;25.10;59.08;99857.09;2059895;28;20033;-42
2021/06/15 01:26:59;;;;;;;3.67;3.05;;;;;;;25.09;59.09;99860.91;2060072;28;20041;-41
2021/06/15 01:28:11;;;;;;;4.20;3.50;;;;;;;25.10;59.13;99856.22;2059997;28;20563;-41
2021/06/15 01:29:20;;;;;;;3.03;2.72;;;;;;;25.10;58.86;99851.56;2059621;28;20026;-42
2021/06/15 01:30:29;;;;;;;3.70;3.40;;;;;;;25.09;58.82;99855.38;2058972;28;20404;-42
2021/06/15 01:31:37;;;;;;;3.20;2.85;;;;;;;25.09;59.04;99858.16;2052011;28;20022;-40
2021/06/15 01:32:42;;;;;;;3.42;3.00;;;;;;;25.10;59.12;99839.69;2051892;28;20034;-41
2021/06/15 01:33:47;;;;;;;3.80;3.40;;;;;;;25.11;58.86;99855.16;2059581;28;20097;-40
2021/06/15 01:34:48;;;;;;;3.42;3.13;;;;;;;25.11;58.86;99855.16;2061210;28;20492;-42
2021/06/15 01:35:52;;;;;;;4.10;3.30;;;;;;;25.10;59.10;99846.06;2059447;28;20033;-40
2021/06/15 01:37:16;;;;;;;3.83;3.42;;;;;;;25.08;58.96;99853.66;2061518;28;20038;-45
2021/06/15 01:38:18;;;;;;;3.78;3.38;;;;;;;25.10;59.01;99846.06;2059252;28;20078;-42
2021/06/15 01:39:22;;;;;;;5.25;3.25;;;;;;;25.11;59.11;99844.13;2059825;28;20034;-41
2021/06/15 01:40:30;;;;;;;4.07;3.47;;;;;;;25.10;58.79;99851.56;2062331;28;20033;-41
2021/06/15 01:41:34;;;;;;;4.07;3.33;;;;;;;25.11;58.95;99856.03;2058989;28;20041;-41
2021/06/15 01:42:51;;;;;;;3.67;3.33;;;;;;;25.10;59.12;99846.06;2059823;28;20022;-40
2021/06/15 01:43:56;;;;;;;3.88;3.47;;;;;;;25.10;58.87;99845.19;2054158;28;20348;-41
2021/06/15 01:45:35;;;;;;;3.90;3.50;;;;;;;25.07;58.84;99846.44;2058130;28;20026;-41
2021/06/15 01:47:01;;;;;;;4.15;3.35;;;;;;;25.08;59.21;99848.16;2043285;28;20038;-41
2021/06/15 01:48:07;;;;;;;3.53;3.22;;;;;;;25.08;59.02;99848.16;2056515;28;20560;-43
2021/06/15 01:49:13;;;;;;;3.45;3.15;;;;;;;25.09;59.07;99860.06;2059889;28;20030;-44
2021/06/15 01:50:17;;;;;;;3.42;3.13;;;;;;;25.08;58.96;99850.91;2058739;28;20068;-43
2021/06/15 01:51:22;;;;;;;3.67;3.22;;;;;;;25.08;58.91;99853.66;2061588;28;20030;-43
2021/06/15 01:52:28;;;;;;;4.18;3.58;;;;;;;25.09;59.01;99855.38;2060895;28;20037;-46
2021/06/15 01:53:29;;;;;;;4.00;3.40;;;;;;;25.09;58.99;99844.34;2059971;28;20113;-44
2021/06/15 01:54:31;;;;;;;3.30;2.97;;;;;;;25.10;58.95;99846.06;2061215;28;20047;-43
2021/06/15 01:55:34;;;;;;;3.28;2.95;;;;;;;25.10;58.85;99846.06;2057938;28;20608;-43
2021/06/15 01:56:38;;;;;;;3.40;3.10;;;;;;;25.09;58.99;99841.59;2062021;28;20036;-43
2021/06/15 01:57:39;;;;;;;3.85;3.45;;;;;;;25.09;59.02;99838.84;2060788;28;20120;-43
2021/06/15 01:58:43;;;;;;;4.32;3.05;;;;;;;25.09;59.11;99844.34;2060485;28;20040;-43
2021/06/15 01:59:46;;;;;;;3.75;3.13;;;;;;;25.09;58.84;99849.88;2060340;28;20160;-44
2021/06/15 02:00:49;;;;;;;5.07;3.67;;;;;;;25.10;58.78;99840.53;2060754;28;20263;-42
2021/06/15 02:01:54;;;;;;;3.22;2.83;;;;;;;25.09;58.95;99843.50;2057519;28;20075;-43
2021/06/15 02:02:56;;;;;;;4.03;3.08;;;;;;;25.09;58.88;99841.59;2059119;28;20087;-43
2021/06/15 02:03:56;;;;;;;4.35;3.28;;;;;;;25.09;58.95;99833.31;2060873;28;20037;-44
2021/06/15 02:04:57;;;;;;;3.30;3.00;;;;;;;25.09;58.94;99849.88;2061091;28;22279;-44
2021/06/15 02:06:00;;;;;;;3.93;3.47;;;;;;;25.09;58.87;99844.34;2060145;28;20064;-43
2021/06/15 02:07:04;;;;;;;3.85;3.50;;;;;;;25.09;59.08;99841.59;2061585;28;20313;-42
2021/06/15 02:08:07;;;;;;;3.30;3.00;;;;;;;25.10;58.93;99851.56;2058683;28;20400;-45
2021/06/15 02:09:09;;;;;;;3.53;3.22;;;;;;;25.10;59.09;99839.69;2055936;28;20037;-45
2021/06/15 02:10:13;;;;;;;3.42;3.13;;;;;;;25.10;59.02;99845.19;2054310;28;20060;-43
2021/06/15 02:11:17;;;;;;;4.97;3.83;;;;;;;25.10;59.19;99845.19;2053025;28;20006;-43
2021/06/15 02:12:20;;;;;;;3.22;2.92;;;;;;;25.09;59.08;99855.38;2055846;28;20676;-44
2021/06/15 02:13:23;;;;;;;4.28;3.53;;;;;;;25.10;59.11;99850.72;2059528;28;20125;-43
2021/06/15 02:14:27;;;;;;;3.80;3.38;;;;;;;25.09;59.21;99852.63;2059963;28;20076;-43
2021/06/15 02:15:29;;;;;;;3.40;3.10;;;;;;;25.10;58.82;99845.19;2048489;28;20038;-43
2021/06/15 02:16:30;;;;;;;3.50;3.08;;;;;;;25.10;58.79;99845.19;2054420;28;20081;-43
2021/06/15 02:17:31;;;;;;;2.85;2.45;;;;;;;25.10;59.05;99845.19;2061756;28;20021;-43
2021/06/15 02:18:33;;;;;;;3.45;3.15;;;;;;;25.10;58.94;99857.09;2059385;28;20026;-43
2021/06/15 02:19:36;;;;;;;3.40;3.10;;;;;;;25.09;58.89;99849.03;2060171;28;20042;-43
2021/06/15 02:20:42;;;;;;;3.60;3.25;;;;;;;25.08;58.97;99850.91;2060248;28;20510;-43
2021/06/15 02:21:48;;;;;;;3.97;3.17;;;;;;;25.09;58.87;99854.53;2053464;28;20030;-43
2021/06/15 02:22:52;;;;;;;3.35;3.05;;;;;;;25.08;58.79;99856.41;2058265;28;20497;-44
2021/06/15 02:24:00;;;;;;;4.88;3.35;;;;;;;25.09;58.89;99852.63;2059391;28;20034;-44
2021/06/15 02:25:03;;;;;;;4.13;3.72;;;;;;;25.09;58.88;99852.63;2054855;28;20697;-44
2021/06/15 02:26:07;;;;;;;4.07;3.00;;;;;;;25.10;58.77;99856.22;2058682;28;20135;-44
2021/06/15 02:27:10;;;;;;;3.58;2.88;;;;;;;25.09;58.98;99849.03;2059864;28;20121;-45
2021/06/15 02:28:11;;;;;;;3.38;3.05;;;;;;;25.09;59.09;99855.38;2061198;28;20040;-43
2021/06/15 02:29:12;;;;;;;2.90;2.60;;;;;;;25.10;58.93;99845.19;2060523;28;20026;-43
2021/06/15 02:30:13;;;;;;;3.10;2.80;;;;;;;25.08;58.87;99842.63;2060623;28;20323;-43
2021/06/15 02:31:18;;;;;;;3.80;3.40;;;;;;;25.09;58.76;99849.03;2057440;28;20056;-44
2021/06/15 02:32:24;;;;;;;3.80;2.90;;;;;;;25.08;58.77;99850.91;2060103;28;20041;-43
2021/06/15 02:33:29;;;;;;;3.45;3.15;;;;;;;25.09;58.99;99838.84;2062392;28;20029;-43
2021/06/15 02:34:32;;;;;;;3.70;3.40;;;;;;;25.09;58.93;99838.84;2058305;28;20104;-44
2021/06/15 02:35:35;;;;;;;3.42;3.13;;;;;;;25.09;59.10;99844.34;2060488;28;20210;-43
2021/06/15 02:36:37;;;;;;;3.38;3.00;;;;;;;25.09;58.97;99849.03;2056461;28;20021;-44
2021/06/15 02:38:09;;;;;;;3.55;3.10;;;;;;;25.08;58.86;99848.16;2061190;28;20029;-43
2021/06/15 02:39:17;;;;;;;3.28;2.97;;;;;;;25.07;58.95;99849.22;2056619;28;20340;-41
2021/06/15 02:40:18;;;;;;;3.25;2.95;;;;;;;25.06;58.90;99844.72;2060117;28;20030;-41
2021/06/15 02:41:20;;;;;;;3.45;3.15;;;;;;;25.08;59.07;99841.78;2061116;28;20033;-42
2021/06/15 02:42:22;;;;;;;3.72;3.33;;;;;;;25.07;58.79;99846.44;2062504;28;20065;-41
2021/06/15 02:43:24;;;;;;;3.00;2.70;;;;;;;25.08;59.03;99848.16;2061168;28;20033;-41
2021/06/15 02:44:28;;;;;;;;;;;;;;;25.04;58.80;99849.59;2062191;28;20060;-41
2021/06/15 02:45:31;;;;;;;3.45;3.15;;;;;;;25.05;59.28;99845.78;2059045;28;19913;-41
2021/06/15 02:46:34;;;;;;;5.20;3.40;;;;;;;25.06;58.81;99839.19;2061409;28;20034;-41
2021/06/15 02:47:36;;;;;;;2.70;2.50;;;;;;;25.07;58.98;99840.94;2060876;28;20041;-41
2021/06/15 02:48:37;;;;;;;3.67;3.38;;;;;;;25.06;59.01;99839.19;2059736;28;20034;-41
2021/06/15 02:49:50;;;;;;;4.32;2.95;;;;;;;25.05;58.82;99836.66;2061082;28;20029;-41
2021/06/15 02:50:53;;;;;;;3.70;3.15;;;;;;;25.07;58.81;99840.09;2073609;28;20029;-41
2021/06/15 02:52:05;;;;;;;3.72;3.35;;;;;;;25.05;59.02;99844.94;2068860;28;20026;-42
2021/06/15 02:53:16;;;;;;;3.25;2.95;;;;;;;25.05;58.99;99842.19;2072578;28;20129;-41
2021/06/15 02:54:22;;;;;;;2.97;2.67;;;;;;;25.06;59.07;99838.34;2065366;28;20026;-41
2021/06/15 02:55:33;;;;;;;3.22;2.70;;;;;;;25.05;59.08;99837.50;2069817;28;20120;-42
2021/06/15 02:56:38;;;;;;;3.92;2.92;;;;;;;25.05;59.17;99843.03;2070893;28;20690;-41
2021/06/15 02:57:38;;;;;;;4.20;3.08;;;;;;;25.06;58.98;99844.72;2072117;28;20048;-42
2021/06/15 02:58:39;;;;;;;4.77;3.63;;;;;;;25.06;58.90;99844.72;2071959;28;20037;-41
2021/06/15 02:59:40;;;;;;;3.33;2.93;;;;;;;25.05;59.27;99848.53;2073191;28;20048;-41
2021/06/15 03:00:40;;;;;;;3.28;2.97;;;;;;;25.07;59.06;99840.09;2071049;28;20140;-42
2021/06/15 03:01:48;;;;;;;3.10;2.80;;;;;;;25.05;58.94;99837.50;2072012;28;20060;-41
2021/06/15 03:02:48;;;;;;;3.40;3.03;;;;;;;25.06;59.19;99838.34;2071588;28;20029;-41
2021/06/15 03:03:49;;;;;;;3.50;3.00;;;;;;;25.06;59.19;99835.59;2070023;28;20036;-41
2021/06/15 03:04:49;;;;;;;2.83;2.60;;;;;;;25.05;58.94;99848.53;2065327;28;20166;-41
2021/06/15 03:05:51;;;;;;;3.80;3.40;;;;;;;25.05;59.17;99837.50;2068523;28;20030;-42
2021/06/15 03:06:51;;;;;;;3.45;3.15;;;;;;;25.06;59.03;99839.19;2058998;28;20039;-42
2021/06/15 03:07:52;;;;;;;3.20;2.87;;;;;;;25.06;59.23;99839.19;2063903;28;20030;-40
2021/06/15 03:08:53;;;;;;;3.15;2.85;;;;;;;25.06;58.88;99833.69;2072092;28;20029;-41
2021/06/15 03:09:53;;;;;;;3.27;2.83;;;;;;;25.05;59.01;99843.03;2072858;28;20030;-41
2021/06/15 03:10:54;;;;;;;3.00;2.60;;;;;;;25.04;59.30;99844.09;2072495;28;20026;-44
2021/06/15 03:12:00;;;;;;;3.00;2.72;;;;;;;25.05;59.22;99843.03;2070665;28;20030;-41
2021/06/15 03:13:22;;;;;;;3.15;2.83;;;;;;;25.05;59.14;99847.69;2071128;28;20044;-42
2021/06/15 03:14:25;;;;;;;3.25;2.95;;;;;;;25.05;59.10;99844.94;2071661;28;20038;-40
2021/06/15 03:15:37;;;;;;;3.45;3.15;;;;;;;25.03;59.08;99850.63;2071014;28;20034;-41
2021/06/15 03:16:37;;;;;;;3.03;2.72;;;;;;;25.04;59.20;99846.84;2068958;28;20087;-41
2021/06/15 03:17:47;;;;;;;4.00;3.00;;;;;;;25.03;59.13;99834.09;2072305;28;20124;-40
2021/06/15 03:19:01;;;;;;;3.30;2.97;;;;;;;25.03;59.18;99850.63;2072281;28;20026;-44
2021/06/15 03:20:08;;;;;;;3.85;3.38;;;;;;;25.02;58.93;99848.94;2067980;28;20030;-40
2021/06/15 03:21:12;;;;;;;3.80;3.38;;;;;;;25.02;59.22;99844.28;2072022;28;20052;-45
2021/06/15 03:22:21;;;;;;;3.55;2.80;;;;;;;25.03;59.22;99845.13;2070213;28;20444;-40
2021/06/15 03:23:51;;;;;;;3.20;2.90;;;;;;;25.03;58.99;99845.97;2073343;28;20037;-42
2021/06/15 03:24:58;;;;;;;3.60;3.30;;;;;;;25.02;59.17;99848.94;2073935;28;20053;-43
2021/06/15 03:26:03;;;;;;;3.15;2.85;;;;;;;25.02;59.15;99843.44;2074068;28;20029;-44
2021/06/15 03:27:10;;;;;;;3.90;3.30;;;;;;;25.02;59.03;99848.94;2073834;28;20036;-43
2021/06/15 03:28:22;;;;;;;3.10;2.80;;;;;;;25.01;59.03;99847.22;2072513;28;20095;-43
2021/06/15 03:29:24;;;;;;;3.08;2.65;;;;;;;25.02;59.07;99848.94;2069693;28;20112;-44
2021/06/15 03:30:26;;;;;;;3.10;2.80;;;;;;;25.02;59.18;99849.78;2074414;28;20527;-42
2021/06/15 03:31:31;;;;;;;3.58;3.13;;;;;;;25.02;58.92;99854.44;2069357;28;20021;-42
2021/06/15 03:32:33;;;;;;;3.20;2.90;;;;;;;25.02;59.09;99854.44;2073013;28;20030;-43
2021/06/15 03:33:40;;;;;;;;;;;;;;;24.99;59.05;99860.38;2072980;28;20201;-43
2021/06/15 03:34:47;;;;;;;3.20;2.90;;;;;;;25.00;59.16;99862.06;2073600;28;19913;-42
2021/06/15 03:35:51;;;;;;;3.40;3.05;;;;;;;25.00;59.27;99862.06;2071752;28;20424;-43
2021/06/15 03:36:53;;;;;;;3.80;2.80;;;;;;;25.01;59.19;99861.00;2075004;28;20037;-43
2021/06/15 03:37:58;;;;;;;3.47;3.17;;;;;;;25.00;58.99;99859.31;2071797;28;20341;-43
2021/06/15 03:39:00;;;;;;;3.05;2.75;;;;;;;25.01;59.42;99858.25;2073680;28;20079;-43
2021/06/15 03:40:01;;;;;;;3.05;2.72;;;;;;;25.03;59.23;99858.91;2074705;28;20083;-42
2021/06/15 03:41:03;;;;;;;3.42;3.13;;;;;;;25.02;59.23;99865.47;2072396;28;20456;-42
2021/06/15 03:42:06;;;;;;;4.65;3.30;;;;;;;25.02;59.08;99865.47;2072702;28;20448;-42
2021/06/15 03:43:09;;;;;;;2.92;2.63;;;;;;;25.01;59.05;99863.75;2074285;28;20026;-43
2021/06/15 03:44:12;;;;;;;4.15;2.95;;;;;;;25.03;59.22;99867.19;2074102;28;20375;-42
2021/06/15 03:45:13;;;;;;;3.67;3.05;;;;;;;25.02;59.34;99866.34;2072505;28;20056;-43
2021/06/15 03:46:16;;;;;;;3.30;3.00;;;;;;;25.02;59.05;99874.59;2073611;28;20057;-43
2021/06/15 03:47:18;;;;;;;3.17;2.72;;;;;;;25.02;59.30;99871.00;2074345;28;20060;-43
2021/06/15 03:48:20;;;;;;;2.97;2.67;;;;;;;25.03;59.21;99869.94;2072999;28;20040;-42
2021/06/15 03:49:22;;;;;;;4.28;2.88;;;;;;;25.02;59.01;99871.00;2073103;28;20037;-43
2021/06/15 03:50:24;;;;;;;2.90;2.60;;;;;;;25.02;59.11;99876.50;2074717;28;20061;-43
2021/06/15 03:51:29;;;;;;;6.47;3.22;;;;;;;25.02;59.23;99874.59;2072957;28;20080;-44
2021/06/15 03:52:34;;;;;;;3.13;2.78;;;;;;;25.02;59.00;99868.25;2073693;28;20042;-42
2021/06/15 03:53:36;;;;;;;3.05;2.75;;;;;;;25.01;59.43;99875.66;2068209;28;20034;-43
2021/06/15 03:54:39;;;;;;;3.30;2.92;;;;;;;25.02;59.01;99865.47;2073441;28;20140;-43
2021/06/15 03:55:40;;;;;;;3.30;3.00;;;;;;;25.01;59.35;99872.03;2073068;28;20440;-42
2021/06/15 03:56:44;;;;;;;3.17;2.88;;;;;;;25.01;59.05;99861.88;2072964;28;20087;-43
2021/06/15 03:57:46;;;;;;;3.38;2.92;;;;;;;25.01;59.06;99866.50;2069103;28;20441;-43
2021/06/15 03:58:48;;;;;;;2.70;2.50;;;;;;;25.01;59.14;99872.03;2074501;28;20336;-44
2021/06/15 03:59:49;;;;;;;3.13;2.83;;;;;;;25.01;59.34;99863.75;2064499;28;20448;-43
2021/06/15 04:00:51;;;;;;;3.57;3.20;;;;;;;25.01;59.24;99863.75;2073167;28;20029;-42
2021/06/15 04:01:53;;;;;;;3.42;3.00;;;;;;;25.01;59.32;99869.28;2072043;28;20284;-42
2021/06/15 04:02:59;;;;;;;3.22;2.92;;;;;;;25.01;59.09;99869.28;2073271;28;20805;-43
2021/06/15 04:04:01;;;;;;;3.22;2.92;;;;;;;25.01;59.17;99864.63;2074298;28;20037;-44
2021/06/15 04:05:04;;;;;;;3.10;2.80;;;;;;;25.00;59.28;99867.56;2071325;28;20029;-42
2021/06/15 04:06:07;;;;;;;3.78;3.47;;;;;;;25.00;59.47;99871.19;2074028;28;20033;-42
2021/06/15 04:07:14;;;;;;;3.22;2.92;;;;;;;25.00;59.16;99868.44;2067619;28;20050;-42
2021/06/15 04:08:15;;;;;;;3.10;2.70;;;;;;;25.01;59.18;99866.50;2072195;28;20018;-42
2021/06/15 04:09:39;;;;;;;3.08;2.78;;;;;;;24.98;59.05;99865.00;2073738;28;20025;-43
2021/06/15 04:10:43;;;;;;;3.03;2.75;;;;;;;24.99;59.22;99876.91;2074550;28;20061;-43
2021/06/15 04:11:44;;;;;;;3.28;2.50;;;;;;;25.00;59.19;99873.09;2072828;28;20030;-43
2021/06/15 04:12:45;;;;;;;3.17;2.83;;;;;;;24.99;59.20;99877.75;2072714;28;20026;-42
2021/06/15 04:13:48;;;;;;;3.42;2.97;;;;;;;25.00;59.29;99884.13;2074468;28;20042;-44
2021/06/15 04:14:51;;;;;;;3.40;3.10;;;;;;;25.00;59.33;99879.44;2072618;28;20090;-43
2021/06/15 04:15:52;;;;;;;3.75;2.97;;;;;;;25.00;59.18;99884.13;2074001;28;20100;-43
2021/06/15 04:16:55;;;;;;;3.03;2.72;;;;;;;25.00;59.19;99884.13;2073731;28;20022;-43
2021/06/15 04:17:59;;;;;;;2.70;2.45;;;;;;;25.00;59.41;99879.44;2073386;28;20084;-42
2021/06/15 04:19:01;;;;;;;3.42;3.13;;;;;;;25.00;59.26;99889.63;2073800;28;20076;-42
2021/06/15 04:20:04;;;;;;;3.15;2.85;;;;;;;25.00;59.35;99886.88;2071845;28;20112;-43
2021/06/15 04:21:07;;;;;;;3.55;2.60;;;;;;;25.00;59.32;99884.13;2073375;28;20040;-43
2021/06/15 04:22:11;;;;;;;3.50;3.20;;;;;;;24.99;59.12;99890.69;2071926;28;20065;-44
2021/06/15 04:23:18;;;;;;;3.35;3.05;;;;;;;24.99;59.25;99890.69;2074186;28;20033;-43
2021/06/15 04:24:23;;;;;;;2.92;2.63;;;;;;;24.98;59.22;99884.31;2074359;28;20317;-44
2021/06/15 04:25:29;;;;;;;2.95;2.65;;;;;;;24.98;59.22;99886.22;2071694;28;20026;-43
2021/06/15 04:26:33;;;;;;;2.95;2.67;;;;;;;24.99;59.06;99886.03;2073133;28;20030;-43
2021/06/15 04:27:34;;;;;;;3.83;2.83;;;;;;;25.00;59.33;99890.47;2064334;28;20133;-42
2021/06/15 04:28:38;;;;;;;3.90;3.00;;;;;;;25.00;59.34;99892.41;2065886;28;20027;-43
2021/06/15 04:29:38;;;;;;;3.00;2.70;;;;;;;24.99;59.29;99893.44;2072405;28;20026;-43
2021/06/15 04:30:40;;;;;;;3.00;2.70;;;;;;;25.00;59.34;99893.25;2073980;28;20057;-43
2021/06/15 04:31:41;;;;;;;;;;;;;;;24.95;59.15;99897.63;2072156;28;20068;-43
2021/06/15 04:32:56;;;;;;;2.70;2.50;;;;;;;24.96;59.35;99900.22;2074185;28;19909;-43
2021/06/15 04:33:59;;;;;;;2.75;2.55;;;;;;;24.96;59.44;99899.34;2073232;28;20439;-44
2021/06/15 04:35:03;;;;;;;3.70;3.40;;;;;;;24.97;59.43;99895.53;2072570;28;20084;-43
2021/06/15 04:36:06;;;;;;;2.80;2.50;;;;;;;24.96;59.13;99897.47;2072009;28;20436;-43
2021/06/15 04:37:09;;;;;;;3.60;3.13;;;;;;;24.97;59.20;99901.06;2072643;28;20447;-43
2021/06/15 04:38:17;;;;;;;3.65;3.05;;;;;;;24.97;59.14;99898.31;2072744;28;20018;-42
2021/06/15 04:39:22;;;;;;;3.20;2.53;;;;;;;24.96;59.39;99900.22;2073954;28;20041;-43
2021/06/15 04:40:29;;;;;;;3.30;3.00;;;;;;;24.97;59.39;99901.06;2073459;28;20033;-43
2021/06/15 04:41:36;;;;;;;3.03;2.72;;;;;;;24.96;59.20;99900.22;2072679;28;20021;-43
2021/06/15 04:42:46;;;;;;;4.15;2.58;;;;;;;24.96;59.23;99902.97;2074269;28;20045;-44
2021/06/15 04:43:54;;;;;;;2.92;2.55;;;;;;;24.97;59.29;99906.56;2070900;28;20022;-43
2021/06/15 04:44:56;;;;;;;2.70;2.50;;;;;;;24.97;59.31;99901.91;2070207;28;20025;-43
2021/06/15 04:46:07;;;;;;;3.67;2.80;;;;;;;24.96;59.08;99904.84;2064963;28;20547;-47
2021/06/15 04:47:19;;;;;;;3.22;2.80;;;;;;;24.97;59.29;99901.06;2067803;28;20104;-43
2021/06/15 04:48:30;;;;;;;3.22;2.70;;;;;;;24.96;59.08;99902.09;2061896;28;20113;-42
2021/06/15 04:49:50;;;;;;;3.05;2.75;;;;;;;24.95;59.07;99909.50;2056613;28;20017;-44
2021/06/15 04:50:51;;;;;;;3.72;3.10;;;;;;;24.95;59.22;99903.16;2060161;28;20101;-42
2021/06/15 04:51:53;;;;;;;3.10;2.80;;;;;;;24.96;59.40;99899.34;2062105;28;20022;-42
2021/06/15 04:52:54;;;;;;;;;;;;;;;24.92;59.42;99909.06;2061734;28;20100;-42
2021/06/15 04:53:58;;;;;;;4.40;2.83;;;;;;;24.92;59.62;99904.41;2061173;28;20442;-43
2021/06/15 04:55:01;;;;;;;3.30;3.00;;;;;;;24.93;59.32;99906.09;2058893;28;20033;-43
2021/06/15 04:56:03;;;;;;;4.25;3.10;;;;;;;24.94;59.26;99905.06;2060522;28;20338;-42
2021/06/15 04:57:05;;;;;;;;;;;;;;;24.91;59.42;99901.81;2061866;28;20079;-44
2021/06/15 04:58:10;;;;;;;3.20;2.90;;;;;;;24.92;59.42;99903.53;2062473;28;19917;-44
2021/06/15 04:59:11;;;;;;;3.58;3.13;;;;;;;24.93;59.34;99910.75;2061262;28;20313;-43
2021/06/15 05:00:13;;;;;;;3.03;2.45;;;;;;;24.94;59.22;99906.94;2059911;28;20416;-43
2021/06/15 05:01:15;;;;;;;3.08;2.63;;;;;;;24.94;59.29;99913.34;2061304;28;20041;-43
2021/06/15 05:02:20;;;;;;;3.88;2.80;;;;;;;24.94;59.18;99913.34;2062507;28;20088;-42
2021/06/15 05:03:21;;;;;;;3.22;2.60;;;;;;;24.95;59.16;99916.94;2061672;28;20372;-43
2021/06/15 05:04:22;;;;;;;3.22;2.92;;;;;;;24.95;59.46;99908.66;2061411;28;20133;-42